EJU4191 LIRN-LFMN
Flight info
| Callsign | EJU4191 |
|---|---|
| Flight time | 1h 10m |
| Altitude | 32000 |
| Route | VEXUV DCT PNZ DCT RIFFI DCT ELVIN DCT TOBGA DCT DOBIM DCT AKUTI R16 KERIT |
| Aircraft | A320/M-SDE2E3FGHIJ1RWXYZ/LB1 |
Departure
| Time | 2026-05-06 01:08 |
|---|---|
| Airport | Naples International Airport (LIRN) |
Arrival
| Time | 2026-05-06 02:19 |
|---|---|
| Airport | Nice-Côte d'Azur Airport (LFMN) |
| Time | Latitude | Longitude | Altitude | Speed | Heading |
|---|---|---|---|---|---|
| 2026-05-06 00:49 | 40.87875 | 14.28342 | 290 ft | 0 kts | 187° |
| 2026-05-06 01:00 | 40.87876 | 14.28342 | 290 ft | 2 kts | 187° |
| 2026-05-06 01:00 | 40.87902 | 14.28347 | 291 ft | 4 kts | 187° |
| 2026-05-06 01:01 | 40.87923 | 14.28351 | 292 ft | 4 kts | 194° |
| 2026-05-06 01:01 | 40.87941 | 14.28363 | 294 ft | 4 kts | 264° |
| 2026-05-06 01:01 | 40.87939 | 14.28394 | 293 ft | 2 kts | 277° |
| 2026-05-06 01:01 | 40.87939 | 14.28397 | 292 ft | 0 kts | 277° |
| 2026-05-06 01:03 | 40.87940 | 14.28387 | 296 ft | 4 kts | 277° |
| 2026-05-06 01:03 | 40.87948 | 14.28303 | 290 ft | 12 kts | 277° |
| 2026-05-06 01:03 | 40.87960 | 14.28186 | 291 ft | 14 kts | 278° |
| 2026-05-06 01:04 | 40.88028 | 14.28156 | 295 ft | 16 kts | 45° |
| 2026-05-06 01:04 | 40.88064 | 14.28305 | 288 ft | 20 kts | 98° |
| 2026-05-06 01:04 | 40.88046 | 14.28500 | 285 ft | 22 kts | 98° |
| 2026-05-06 01:04 | 40.88069 | 14.28648 | 284 ft | 17 kts | 52° |
| 2026-05-06 01:05 | 40.88152 | 14.28790 | 279 ft | 22 kts | 52° |
| 2026-05-06 01:05 | 40.88253 | 14.28965 | 275 ft | 26 kts | 53° |
| 2026-05-06 01:05 | 40.88366 | 14.29162 | 270 ft | 25 kts | 53° |
| 2026-05-06 01:05 | 40.88454 | 14.29314 | 266 ft | 21 kts | 52° |
| 2026-05-06 01:06 | 40.88551 | 14.29481 | 261 ft | 25 kts | 53° |
| 2026-05-06 01:06 | 40.88666 | 14.29680 | 255 ft | 29 kts | 52° |
| 2026-05-06 01:06 | 40.88767 | 14.29855 | 250 ft | 21 kts | 52° |
| 2026-05-06 01:06 | 40.88865 | 14.30023 | 244 ft | 25 kts | 52° |
| 2026-05-06 01:07 | 40.88945 | 14.30163 | 239 ft | 11 kts | 53° |
| 2026-05-06 01:07 | 40.89020 | 14.30151 | 238 ft | 13 kts | 328° |
| 2026-05-06 01:07 | 40.89073 | 14.30103 | 238 ft | 6 kts | 307° |
| 2026-05-06 01:07 | 40.89067 | 14.30059 | 239 ft | 8 kts | 241° |
| 2026-05-06 01:08 | 40.88933 | 14.29774 | 248 ft | 74 kts | 238° |
| 2026-05-06 01:08 | 40.88536 | 14.28933 | 271 ft | 138 kts | 238° |
| 2026-05-06 01:08 | 40.87944 | 14.27701 | 575 ft | 165 kts | 237° |
| 2026-05-06 01:08 | 40.87150 | 14.26634 | 1347 ft | 166 kts | 207° |
| 2026-05-06 01:09 | 40.86044 | 14.26321 | 1999 ft | 165 kts | 173° |
| 2026-05-06 01:09 | 40.84911 | 14.26529 | 2645 ft | 163 kts | 173° |
| 2026-05-06 01:09 | 40.83786 | 14.26712 | 3282 ft | 162 kts | 176° |
| 2026-05-06 01:09 | 40.82611 | 14.26887 | 3628 ft | 180 kts | 176° |
| 2026-05-06 01:10 | 40.81305 | 14.26923 | 3903 ft | 199 kts | 197° |
| 2026-05-06 01:10 | 40.80085 | 14.25941 | 4110 ft | 220 kts | 232° |
| 2026-05-06 01:10 | 40.79490 | 14.24006 | 4459 ft | 243 kts | 259° |
| 2026-05-06 01:10 | 40.79229 | 14.21719 | 5039 ft | 257 kts | 263° |
| 2026-05-06 01:11 | 40.79026 | 14.19358 | 5925 ft | 260 kts | 263° |
| 2026-05-06 01:11 | 40.78836 | 14.16982 | 6842 ft | 261 kts | 263° |
| 2026-05-06 01:11 | 40.78643 | 14.14591 | 7699 ft | 264 kts | 263° |
| 2026-05-06 01:11 | 40.78441 | 14.12172 | 8547 ft | 267 kts | 263° |
| 2026-05-06 01:12 | 40.78229 | 14.09725 | 9386 ft | 271 kts | 262° |
| 2026-05-06 01:12 | 40.78007 | 14.07242 | 10166 ft | 275 kts | 262° |
| 2026-05-06 01:12 | 40.77770 | 14.04652 | 10528 ft | 295 kts | 262° |
| 2026-05-06 01:12 | 40.77511 | 14.01881 | 10925 ft | 311 kts | 262° |
| 2026-05-06 01:13 | 40.77242 | 13.99012 | 11604 ft | 317 kts | 262° |
| 2026-05-06 01:13 | 40.76971 | 13.96100 | 12327 ft | 322 kts | 262° |
| 2026-05-06 01:13 | 40.76699 | 13.93151 | 13047 ft | 326 kts | 262° |
| 2026-05-06 01:13 | 40.76422 | 13.90166 | 13779 ft | 330 kts | 262° |
| 2026-05-06 01:14 | 40.75851 | 13.84091 | 15087 ft | 336 kts | 262° |
| 2026-05-06 01:14 | 40.75565 | 13.81062 | 15771 ft | 338 kts | 261° |
| 2026-05-06 01:14 | 40.75271 | 13.77976 | 16461 ft | 340 kts | 261° |
| 2026-05-06 01:15 | 40.74973 | 13.74865 | 17145 ft | 342 kts | 261° |
| 2026-05-06 01:15 | 40.74677 | 13.71744 | 17817 ft | 344 kts | 261° |
| 2026-05-06 01:15 | 40.74377 | 13.68608 | 18442 ft | 346 kts | 261° |
| 2026-05-06 01:15 | 40.74072 | 13.65446 | 19002 ft | 348 kts | 261° |
| 2026-05-06 01:16 | 40.73766 | 13.62276 | 19577 ft | 349 kts | 261° |
| 2026-05-06 01:16 | 40.73459 | 13.59091 | 20143 ft | 351 kts | 261° |
| 2026-05-06 01:16 | 40.73152 | 13.55891 | 20703 ft | 353 kts | 261° |
| 2026-05-06 01:16 | 40.72843 | 13.52677 | 21254 ft | 354 kts | 261° |
| 2026-05-06 01:17 | 40.72530 | 13.49448 | 21798 ft | 356 kts | 262° |
| 2026-05-06 01:17 | 40.72213 | 13.46203 | 22329 ft | 358 kts | 261° |
| 2026-05-06 01:17 | 40.71890 | 13.42944 | 22849 ft | 360 kts | 261° |
| 2026-05-06 01:17 | 40.71565 | 13.39667 | 23371 ft | 362 kts | 261° |
| 2026-05-06 01:18 | 40.71242 | 13.36366 | 23827 ft | 364 kts | 262° |
| 2026-05-06 01:18 | 40.71188 | 13.33021 | 24226 ft | 368 kts | 273° |
| 2026-05-06 01:18 | 40.71704 | 13.29693 | 24613 ft | 375 kts | 285° |
| 2026-05-06 01:18 | 40.72794 | 13.26545 | 25004 ft | 383 kts | 297° |
| 2026-05-06 01:19 | 40.74391 | 13.23695 | 25381 ft | 389 kts | 304° |
| 2026-05-06 01:19 | 40.76086 | 13.20906 | 25764 ft | 391 kts | 304° |
| 2026-05-06 01:19 | 40.77766 | 13.18129 | 26130 ft | 393 kts | 304° |
| 2026-05-06 01:19 | 40.79471 | 13.15298 | 26500 ft | 395 kts | 304° |
| 2026-05-06 01:20 | 40.81183 | 13.12447 | 26912 ft | 397 kts | 303° |
| 2026-05-06 01:20 | 40.82900 | 13.09582 | 27302 ft | 399 kts | 303° |
| 2026-05-06 01:20 | 40.84625 | 13.06701 | 27685 ft | 400 kts | 303° |
| 2026-05-06 01:20 | 40.86353 | 13.03809 | 28045 ft | 402 kts | 303° |
| 2026-05-06 01:21 | 40.88092 | 13.00899 | 28400 ft | 405 kts | 303° |
| 2026-05-06 01:21 | 40.89841 | 12.97973 | 28746 ft | 407 kts | 303° |
| 2026-05-06 01:21 | 40.91655 | 12.95083 | 29083 ft | 412 kts | 308° |
| 2026-05-06 01:21 | 40.93666 | 12.92361 | 29423 ft | 415 kts | 309° |
| 2026-05-06 01:22 | 40.95692 | 12.89631 | 29754 ft | 417 kts | 309° |
| 2026-05-06 01:22 | 40.97728 | 12.86884 | 30091 ft | 419 kts | 309° |
| 2026-05-06 01:22 | 40.99769 | 12.84125 | 30362 ft | 421 kts | 309° |
| 2026-05-06 01:22 | 41.01820 | 12.81345 | 30633 ft | 423 kts | 309° |
| 2026-05-06 01:23 | 41.03880 | 12.78549 | 30896 ft | 425 kts | 309° |
| 2026-05-06 01:23 | 41.05947 | 12.75742 | 31167 ft | 426 kts | 309° |
| 2026-05-06 01:23 | 41.08020 | 12.72924 | 31457 ft | 427 kts | 309° |
| 2026-05-06 01:23 | 41.10092 | 12.70105 | 31833 ft | 426 kts | 309° |
| 2026-05-06 01:24 | 41.12159 | 12.67292 | 31993 ft | 425 kts | 309° |
| 2026-05-06 01:24 | 41.14197 | 12.64527 | 32027 ft | 411 kts | 309° |
| 2026-05-06 01:24 | 41.18106 | 12.59197 | 32024 ft | 399 kts | 308° |
| 2026-05-06 01:25 | 41.21954 | 12.53917 | 32024 ft | 397 kts | 308° |
| 2026-05-06 01:25 | 41.25797 | 12.48641 | 32024 ft | 397 kts | 308° |
| 2026-05-06 01:26 | 41.29617 | 12.43406 | 32021 ft | 397 kts | 308° |
| 2026-05-06 01:26 | 41.33459 | 12.38136 | 32047 ft | 397 kts | 308° |
| 2026-05-06 01:27 | 41.37294 | 12.32863 | 32035 ft | 396 kts | 308° |
| 2026-05-06 01:27 | 41.41119 | 12.27582 | 32018 ft | 396 kts | 308° |
| 2026-05-06 01:28 | 41.44942 | 12.22299 | 31997 ft | 397 kts | 308° |
| 2026-05-06 01:28 | 41.48786 | 12.16991 | 31985 ft | 398 kts | 308° |
| 2026-05-06 01:29 | 41.52479 | 12.11503 | 31986 ft | 397 kts | 304° |
| 2026-05-06 01:29 | 41.55977 | 12.05843 | 31985 ft | 397 kts | 303° |
| 2026-05-06 01:30 | 41.59483 | 12.00149 | 32024 ft | 397 kts | 303° |
| 2026-05-06 01:30 | 41.63025 | 11.94487 | 32025 ft | 397 kts | 303° |
| 2026-05-06 01:31 | 41.66573 | 11.88843 | 32018 ft | 396 kts | 304° |
| 2026-05-06 01:31 | 41.70119 | 11.83195 | 32010 ft | 396 kts | 303° |
| 2026-05-06 01:32 | 41.73632 | 11.77576 | 32008 ft | 396 kts | 303° |
| 2026-05-06 01:32 | 41.77170 | 11.71900 | 31998 ft | 397 kts | 303° |
| 2026-05-06 01:33 | 41.80704 | 11.66227 | 32014 ft | 396 kts | 303° |
| 2026-05-06 01:33 | 41.84227 | 11.60556 | 32031 ft | 395 kts | 303° |
| 2026-05-06 01:34 | 41.87736 | 11.54895 | 32020 ft | 394 kts | 303° |
| 2026-05-06 01:34 | 41.91237 | 11.49248 | 32013 ft | 393 kts | 303° |
| 2026-05-06 01:35 | 41.94730 | 11.43603 | 31997 ft | 392 kts | 303° |
| 2026-05-06 01:35 | 41.98208 | 11.37954 | 32003 ft | 392 kts | 303° |
| 2026-05-06 01:36 | 42.01097 | 11.33260 | 31992 ft | 392 kts | 303° |
| 2026-05-06 01:36 | 42.04571 | 11.27613 | 31985 ft | 392 kts | 303° |
| 2026-05-06 01:37 | 42.08049 | 11.21951 | 31973 ft | 393 kts | 303° |
| 2026-05-06 01:37 | 42.11532 | 11.16247 | 31962 ft | 395 kts | 303° |
| 2026-05-06 01:38 | 42.15026 | 11.10525 | 31957 ft | 396 kts | 303° |
| 2026-05-06 01:38 | 42.18528 | 11.04793 | 31957 ft | 396 kts | 303° |
| 2026-05-06 01:39 | 42.22028 | 10.99047 | 31958 ft | 397 kts | 303° |
| 2026-05-06 01:39 | 42.25524 | 10.93287 | 31957 ft | 396 kts | 303° |
| 2026-05-06 01:40 | 42.29014 | 10.87527 | 31957 ft | 396 kts | 303° |
| 2026-05-06 01:40 | 42.32500 | 10.81756 | 31946 ft | 396 kts | 303° |
| 2026-05-06 01:41 | 42.35967 | 10.76024 | 31948 ft | 397 kts | 303° |
| 2026-05-06 01:41 | 42.39458 | 10.70240 | 31942 ft | 397 kts | 303° |
| 2026-05-06 01:42 | 42.42945 | 10.64454 | 31942 ft | 397 kts | 303° |
| 2026-05-06 01:42 | 42.46427 | 10.58667 | 31941 ft | 396 kts | 303° |
| 2026-05-06 01:43 | 42.49898 | 10.52865 | 31928 ft | 397 kts | 302° |
| 2026-05-06 01:43 | 42.53374 | 10.47044 | 31924 ft | 398 kts | 302° |
| 2026-05-06 01:44 | 42.56860 | 10.41207 | 31929 ft | 398 kts | 302° |
| 2026-05-06 01:44 | 42.60342 | 10.35361 | 31928 ft | 398 kts | 301° |
| 2026-05-06 01:45 | 42.63822 | 10.29503 | 31926 ft | 398 kts | 301° |
| 2026-05-06 01:45 | 42.67300 | 10.23644 | 31916 ft | 398 kts | 301° |
| 2026-05-06 01:46 | 42.70775 | 10.17788 | 31928 ft | 398 kts | 301° |
| 2026-05-06 01:46 | 42.74246 | 10.11929 | 31917 ft | 397 kts | 301° |
| 2026-05-06 01:47 | 42.77697 | 10.06071 | 31907 ft | 397 kts | 301° |
| 2026-05-06 01:47 | 42.81147 | 10.00207 | 31923 ft | 397 kts | 301° |
| 2026-05-06 01:48 | 42.84597 | 9.94347 | 31910 ft | 396 kts | 301° |
| 2026-05-06 01:48 | 42.88002 | 9.88523 | 31907 ft | 396 kts | 300° |
| 2026-05-06 01:49 | 42.91395 | 9.82575 | 31913 ft | 394 kts | 298° |
| 2026-05-06 01:49 | 42.94704 | 9.76386 | 31903 ft | 391 kts | 296° |
| 2026-05-06 01:50 | 42.97123 | 9.69908 | 31897 ft | 381 kts | 287° |
| 2026-05-06 01:50 | 42.99349 | 9.63335 | 31699 ft | 377 kts | 287° |
| 2026-05-06 01:51 | 43.00456 | 9.60123 | 31316 ft | 372 kts | 287° |
| 2026-05-06 01:51 | 43.01552 | 9.56945 | 30881 ft | 367 kts | 287° |
| 2026-05-06 01:51 | 43.02632 | 9.53802 | 30456 ft | 363 kts | 287° |
| 2026-05-06 01:51 | 43.03697 | 9.50696 | 30061 ft | 359 kts | 287° |
| 2026-05-06 01:52 | 43.04748 | 9.47613 | 29586 ft | 356 kts | 287° |
| 2026-05-06 01:52 | 43.05782 | 9.44569 | 29207 ft | 350 kts | 287° |
| 2026-05-06 01:52 | 43.06795 | 9.41572 | 28802 ft | 345 kts | 287° |
| 2026-05-06 01:52 | 43.07793 | 9.38620 | 28429 ft | 339 kts | 287° |
| 2026-05-06 01:53 | 43.08775 | 9.35716 | 28058 ft | 334 kts | 287° |
| 2026-05-06 01:53 | 43.09738 | 9.32859 | 27691 ft | 329 kts | 287° |
| 2026-05-06 01:53 | 43.10687 | 9.30041 | 27395 ft | 322 kts | 287° |
| 2026-05-06 01:53 | 43.11615 | 9.27297 | 27319 ft | 315 kts | 287° |
| 2026-05-06 01:54 | 43.12528 | 9.24564 | 27252 ft | 317 kts | 286° |
| 2026-05-06 01:54 | 43.13443 | 9.21818 | 27175 ft | 317 kts | 287° |
| 2026-05-06 01:54 | 43.14361 | 9.19071 | 27090 ft | 317 kts | 287° |
| 2026-05-06 01:54 | 43.15280 | 9.16327 | 27028 ft | 317 kts | 287° |
| 2026-05-06 01:55 | 43.16197 | 9.13583 | 26956 ft | 317 kts | 287° |
| 2026-05-06 01:55 | 43.17114 | 9.10843 | 26884 ft | 317 kts | 287° |
| 2026-05-06 01:55 | 43.18020 | 9.08138 | 26840 ft | 317 kts | 287° |
| 2026-05-06 01:55 | 43.18939 | 9.05391 | 26769 ft | 318 kts | 287° |
| 2026-05-06 01:56 | 43.19861 | 9.02632 | 26683 ft | 318 kts | 287° |
| 2026-05-06 01:56 | 43.20780 | 8.99879 | 26625 ft | 318 kts | 287° |
| 2026-05-06 01:56 | 43.21699 | 8.97121 | 26550 ft | 318 kts | 287° |
| 2026-05-06 01:56 | 43.22616 | 8.94363 | 26480 ft | 317 kts | 287° |
| 2026-05-06 01:57 | 43.23530 | 8.91613 | 26394 ft | 317 kts | 287° |
| 2026-05-06 01:57 | 43.24447 | 8.88862 | 26334 ft | 317 kts | 287° |
| 2026-05-06 01:57 | 43.25363 | 8.86110 | 26266 ft | 317 kts | 287° |
| 2026-05-06 01:57 | 43.26278 | 8.83359 | 26193 ft | 317 kts | 287° |
| 2026-05-06 01:58 | 43.27190 | 8.80614 | 26123 ft | 316 kts | 287° |
| 2026-05-06 01:58 | 43.28101 | 8.77870 | 26050 ft | 316 kts | 287° |
| 2026-05-06 01:58 | 43.29011 | 8.75124 | 25981 ft | 316 kts | 287° |
| 2026-05-06 01:58 | 43.29917 | 8.72378 | 25893 ft | 316 kts | 287° |
| 2026-05-06 01:59 | 43.30821 | 8.69629 | 25549 ft | 317 kts | 287° |
| 2026-05-06 01:59 | 43.31727 | 8.66876 | 25121 ft | 316 kts | 287° |
| 2026-05-06 01:59 | 43.32631 | 8.64127 | 24696 ft | 315 kts | 287° |
| 2026-05-06 01:59 | 43.33463 | 8.61362 | 24276 ft | 310 kts | 280° |
| 2026-05-06 02:00 | 43.33901 | 8.58508 | 23855 ft | 302 kts | 270° |
| 2026-05-06 02:00 | 43.33924 | 8.55652 | 23442 ft | 297 kts | 260° |
| 2026-05-06 02:00 | 43.33693 | 8.52885 | 22992 ft | 295 kts | 259° |
| 2026-05-06 02:00 | 43.33455 | 8.50061 | 22577 ft | 293 kts | 259° |
| 2026-05-06 02:01 | 43.33225 | 8.47293 | 22179 ft | 291 kts | 259° |
| 2026-05-06 02:01 | 43.32998 | 8.44545 | 21786 ft | 289 kts | 259° |
| 2026-05-06 02:01 | 43.32772 | 8.41805 | 21397 ft | 288 kts | 259° |
| 2026-05-06 02:01 | 43.32545 | 8.39077 | 21015 ft | 287 kts | 258° |
| 2026-05-06 02:02 | 43.32316 | 8.36362 | 20623 ft | 286 kts | 259° |
| 2026-05-06 02:02 | 43.32090 | 8.33697 | 20280 ft | 285 kts | 258° |
| 2026-05-06 02:02 | 43.31861 | 8.30994 | 19884 ft | 285 kts | 258° |
| 2026-05-06 02:02 | 43.31633 | 8.28290 | 19506 ft | 285 kts | 258° |
| 2026-05-06 02:03 | 43.31400 | 8.25550 | 19112 ft | 285 kts | 258° |
| 2026-05-06 02:03 | 43.31167 | 8.22848 | 18750 ft | 285 kts | 258° |
| 2026-05-06 02:03 | 43.30934 | 8.20177 | 18383 ft | 287 kts | 258° |
| 2026-05-06 02:03 | 43.30696 | 8.17451 | 17984 ft | 288 kts | 258° |
| 2026-05-06 02:04 | 43.30460 | 8.14726 | 17589 ft | 287 kts | 258° |
| 2026-05-06 02:04 | 43.30344 | 8.11983 | 17203 ft | 291 kts | 268° |
| 2026-05-06 02:04 | 43.30709 | 8.09227 | 16816 ft | 299 kts | 282° |
| 2026-05-06 02:04 | 43.31588 | 8.06599 | 16419 ft | 307 kts | 293° |
| 2026-05-06 02:05 | 43.32653 | 8.04055 | 16015 ft | 307 kts | 293° |
| 2026-05-06 02:05 | 43.33713 | 8.01503 | 15617 ft | 308 kts | 292° |
| 2026-05-06 02:05 | 43.34771 | 7.98943 | 15219 ft | 309 kts | 292° |
| 2026-05-06 02:05 | 43.35830 | 7.96372 | 14855 ft | 310 kts | 293° |
| 2026-05-06 02:06 | 43.36897 | 7.93784 | 14421 ft | 312 kts | 293° |
| 2026-05-06 02:06 | 43.37967 | 7.91190 | 14044 ft | 312 kts | 293° |
| 2026-05-06 02:06 | 43.39038 | 7.88591 | 13648 ft | 313 kts | 293° |
| 2026-05-06 02:06 | 43.40113 | 7.85990 | 13225 ft | 313 kts | 293° |
| 2026-05-06 02:07 | 43.41180 | 7.83400 | 12933 ft | 310 kts | 293° |
| 2026-05-06 02:07 | 43.42066 | 7.80735 | 12553 ft | 302 kts | 280° |
| 2026-05-06 02:07 | 43.42633 | 7.77964 | 12172 ft | 300 kts | 280° |
| 2026-05-06 02:07 | 43.43199 | 7.75209 | 11788 ft | 299 kts | 280° |
| 2026-05-06 02:08 | 43.43764 | 7.72467 | 11390 ft | 298 kts | 280° |
| 2026-05-06 02:08 | 43.44328 | 7.69723 | 11004 ft | 299 kts | 280° |
| 2026-05-06 02:08 | 43.44896 | 7.66959 | 10604 ft | 302 kts | 280° |
| 2026-05-06 02:08 | 43.45467 | 7.64156 | 10226 ft | 305 kts | 280° |
| 2026-05-06 02:09 | 43.46037 | 7.61360 | 9842 ft | 304 kts | 280° |
| 2026-05-06 02:09 | 43.46600 | 7.58596 | 9695 ft | 294 kts | 280° |
| 2026-05-06 02:09 | 43.47142 | 7.55949 | 9259 ft | 282 kts | 279° |
| 2026-05-06 02:09 | 43.47395 | 7.53329 | 8593 ft | 272 kts | 264° |
| 2026-05-06 02:10 | 43.47148 | 7.50826 | 8149 ft | 260 kts | 253° |
| 2026-05-06 02:10 | 43.46735 | 7.48407 | 7755 ft | 259 kts | 253° |
| 2026-05-06 02:10 | 43.46334 | 7.46001 | 7357 ft | 258 kts | 254° |
| 2026-05-06 02:10 | 43.45943 | 7.43632 | 6971 ft | 257 kts | 254° |
| 2026-05-06 02:11 | 43.45549 | 7.41247 | 6570 ft | 255 kts | 254° |
| 2026-05-06 02:11 | 43.45157 | 7.38873 | 6163 ft | 254 kts | 255° |
| 2026-05-06 02:11 | 43.44766 | 7.36506 | 5747 ft | 253 kts | 255° |
| 2026-05-06 02:11 | 43.44376 | 7.34147 | 5338 ft | 252 kts | 255° |
| 2026-05-06 02:12 | 43.43982 | 7.31800 | 4930 ft | 251 kts | 255° |
| 2026-05-06 02:12 | 43.43590 | 7.29471 | 4613 ft | 246 kts | 255° |
| 2026-05-06 02:12 | 43.43216 | 7.27227 | 4557 ft | 237 kts | 253° |
| 2026-05-06 02:12 | 43.42873 | 7.24997 | 4488 ft | 241 kts | 261° |
| 2026-05-06 02:13 | 43.42965 | 7.22690 | 4519 ft | 244 kts | 281° |
| 2026-05-06 02:13 | 43.43612 | 7.20559 | 4333 ft | 241 kts | 301° |
| 2026-05-06 02:13 | 43.44664 | 7.18827 | 4148 ft | 228 kts | 308° |
| 2026-05-06 02:13 | 43.45725 | 7.17328 | 4033 ft | 212 kts | 320° |
| 2026-05-06 02:14 | 43.46982 | 7.16425 | 3939 ft | 200 kts | 340° |
| 2026-05-06 02:14 | 43.48358 | 7.16139 | 3609 ft | 201 kts | 354° |
| 2026-05-06 02:14 | 43.49747 | 7.16009 | 3307 ft | 199 kts | 354° |
| 2026-05-06 02:14 | 43.51122 | 7.15881 | 3021 ft | 196 kts | 354° |
| 2026-05-06 02:15 | 43.52474 | 7.15753 | 2745 ft | 193 kts | 354° |
| 2026-05-06 02:15 | 43.53804 | 7.15627 | 2492 ft | 190 kts | 354° |
| 2026-05-06 02:15 | 43.55101 | 7.15504 | 2232 ft | 181 kts | 354° |
| 2026-05-06 02:15 | 43.56316 | 7.15390 | 2002 ft | 171 kts | 354° |
| 2026-05-06 02:16 | 43.57460 | 7.15288 | 1778 ft | 165 kts | 355° |
| 2026-05-06 02:16 | 43.58596 | 7.15185 | 1567 ft | 162 kts | 355° |
| 2026-05-06 02:16 | 43.59714 | 7.15080 | 1321 ft | 161 kts | 355° |
| 2026-05-06 02:16 | 43.60829 | 7.15041 | 1095 ft | 160 kts | 7° |
| 2026-05-06 02:17 | 43.61822 | 7.15607 | 883 ft | 153 kts | 39° |
| 2026-05-06 02:17 | 43.62557 | 7.16635 | 641 ft | 148 kts | 48° |
| 2026-05-06 02:17 | 43.63233 | 7.17701 | 450 ft | 148 kts | 44° |
| 2026-05-06 02:17 | 43.63952 | 7.18702 | 384 ft | 146 kts | 45° |
| 2026-05-06 02:18 | 43.64680 | 7.19697 | 202 ft | 147 kts | 45° |
| 2026-05-06 02:18 | 43.65396 | 7.20699 | 30 ft | 144 kts | 45° |
| 2026-05-06 02:18 | 43.66034 | 7.21577 | 20 ft | 110 kts | 45° |
| 2026-05-06 02:18 | 43.66451 | 7.22151 | 22 ft | 60 kts | 45° |
| 2026-05-06 02:19 | 43.66655 | 7.22427 | 20 ft | 24 kts | 45° |
| 2026-05-06 02:19 | 43.66727 | 7.22485 | 20 ft | 16 kts | 359° |
| 2026-05-06 02:19 | 43.66815 | 7.22382 | 22 ft | 17 kts | 288° |
| 2026-05-06 02:19 | 43.66742 | 7.22229 | 21 ft | 24 kts | 225° |
| 2026-05-06 02:20 | 43.66474 | 7.21860 | 21 ft | 28 kts | 224° |
| 2026-05-06 02:20 | 43.66368 | 7.21715 | 21 ft | 21 kts | 225° |
| 2026-05-06 02:20 | 43.66260 | 7.21566 | 21 ft | 24 kts | 225° |
| 2026-05-06 02:21 | 43.66135 | 7.21395 | 21 ft | 27 kts | 225° |
| 2026-05-06 02:21 | 43.65997 | 7.21206 | 21 ft | 28 kts | 225° |
| 2026-05-06 02:21 | 43.65875 | 7.21038 | 21 ft | 22 kts | 225° |
| 2026-05-06 02:21 | 43.65799 | 7.20932 | 21 ft | 10 kts | 232° |
| 2026-05-06 02:22 | 43.65815 | 7.20862 | 21 ft | 9 kts | 335° |
| 2026-05-06 02:22 | 43.65887 | 7.20844 | 24 ft | 12 kts | 351° |
| 2026-05-06 02:22 | 43.65945 | 7.20808 | 21 ft | 8 kts | 292° |
| 2026-05-06 02:22 | 43.65952 | 7.20751 | 21 ft | 3 kts | 281° |
| 2026-05-06 02:23 | 43.65955 | 7.20730 | 21 ft | 2 kts | 281° |
| 2026-05-06 02:23 | 43.65956 | 7.20726 | 21 ft | 0 kts | 281° |